Montville, Ohio
Current Conditions -  °F | °C
As of 7:53 AM on Monday 20 Oct 2014 (Local Time) from KHZY Reporting Station
Overcast Overcast  
Wind Chill: 41°   Ceiling: 7000
Heat Index: 45°   Visibility: 10mi
Dew Point: 38°   Wind: 8mph
Humidity: 76%   Direction: 190°S
Pressure: 29.95"   Gusts: NA
Location:  41.61°N, 81.05°W
Report Text: KHZY 201153Z AUTO 19007KT 10SM OVC070 07/03 A2995 RMK AO2 SLP146 T00720033 10072 20050 56013
Loading
Personal Weather Stations






























Interactive Weather Map
Tropical Storm Tracking
New forecast layout! Learn more

10-Day Weather Forecast

Advertisements
Track Severe Weather on mobile